Charter Quote
Worldwide +1-877-727-2538 Call
Select Language Lang
SAFETY RELIABILITY EXPERIENCE

Tateyama Airport (RJTE) - Jet Charter Services

AIRPORT INFORMATION
ICAORJTE
LOCATIONTateyama, Japan
FACILITY TYPEAIRPORT
Runway Length (ft) Width (ft) Surface Type Elevation (ft)
27/09 984 148 CON 10.00000

At Paramount Business Jets you can hire chartered private jets to and from Tateyama Airport with as little as 4 hours of notice. All flights booked via Paramount Business Jets are operated by certified direct air carriers that meet and exceed the FAA part 135 and 121 protocol or a foreign equivalent safety authority. Furthermore, Paramount Business Jets subscribes to ARGUS for their third party safety checks of operators, aircraft, and crews prior each and every flight to and from Tateyama Airport and worldwide.

  • Quote a trip using Tateyama Airport or call us 24/7 - 365 days a year at +1-877-727-2538.
Questions? Call +1-877-727-2538

METAR Weather Data at Tateyama Airport, RJTE

STATIONRJTE
OBSERVEDWed Jan 23, 17:08 UTC
NOWWed Jan 23, 22:10 UTC
AGE5:02 hr ago
WINDNNW at 18 mph, gusting to 30 mph
VISIBILITY16 miles
CLOUDSscattered clouds
TEMP50°F (10°C)
WIND CHILL44°F (7°C)
DEWPT36°F (2°C)
HUMIDITY58%
BAROMETER1008 hPa (29.77 in Hg)
METARRJTE 231708Z 34016G26KT 260V020 9999 FEW020 SCT050 10/02 Q1008 RMK 2CU020 3SC050 A2978

Call us on +1-877-727-2538 (24 Hours) to Hire a Private Jet or Get a Quick Quote.

Find Airports Near any Location

Processing
...